ESUD

Storuman Airport

Sweden
METAR ESUD 190320Z AUTO 00000KT 1000 R33/P2000N -SN ///021 M14/M16 Q1000
Observed Flight Rules
Jan-19 @ 03:20 UTC (31 minutes ago)
Wind Visibility Conditions
Calm 998 meters
  • Light Snow
Temperatures Readings
Current -14°C / 7°F
Dewpoint -16°C / 3°F
Humidity 85%
Altimeter 29.53" Hg
Pressure 1000 hPa
Elevation 279
METAR ESUD 190320Z AUTO 00000KT 1000 R33/P2000N -SN ///021 M14/M16 Q1000
Observed Flight Rules
Jan-19 @ 03:20 UTC
(31 minutes ago)
Wind Visibility
Calm 998 meters
Conditions
  • Light Snow
Temperature Dewpoint
-14°C / 7°F -16°C / 3°F
Humidity Altimeter Pressure
85% 29.53" Hg 1000 hPa